sensor_id;sensor_type;location;lat;lon;timestamp;P1;durP1;ratioP1;P2;durP2;ratioP2
24685;SDS011;12804;51.176;4.452;2022-07-01T00:00:09;17.00;;;8.85;;
24685;SDS011;12804;51.176;4.452;2022-07-01T00:02:38;15.80;;;9.00;;
24685;SDS011;12804;51.176;4.452;2022-07-01T00:05:05;13.13;;;8.68;;
24685;SDS011;12804;51.176;4.452;2022-07-01T00:07:49;14.52;;;8.77;;
24685;SDS011;12804;51.176;4.452;2022-07-01T00:10:15;16.98;;;8.77;;
24685;SDS011;12804;51.176;4.452;2022-07-01T00:12:41;18.20;;;9.30;;
24685;SDS011;12804;51.176;4.452;2022-07-01T00:15:07;17.50;;;9.45;;
24685;SDS011;12804;51.176;4.452;2022-07-01T00:17:34;17.02;;;9.27;;
24685;SDS011;12804;51.176;4.452;2022-07-01T00:20:01;14.45;;;8.30;;
24685;SDS011;12804;51.176;4.452;2022-07-01T00:22:28;17.88;;;8.73;;
24685;SDS011;12804;51.176;4.452;2022-07-01T00:24:54;17.85;;;8.85;;
24685;SDS011;12804;51.176;4.452;2022-07-01T00:27:20;20.02;;;9.27;;
24685;SDS011;12804;51.176;4.452;2022-07-01T00:29:46;16.25;;;9.23;;
24685;SDS011;12804;51.176;4.452;2022-07-01T00:32:11;15.20;;;8.38;;
24685;SDS011;12804;51.176;4.452;2022-07-01T00:34:37;15.70;;;9.02;;
24685;SDS011;12804;51.176;4.452;2022-07-01T00:37:03;13.95;;;8.88;;
24685;SDS011;12804;51.176;4.452;2022-07-01T00:39:29;16.67;;;9.35;;
24685;SDS011;12804;51.176;4.452;2022-07-01T00:42:00;19.25;;;9.52;;
24685;SDS011;12804;51.176;4.452;2022-07-01T00:44:26;14.90;;;9.15;;
24685;SDS011;12804;51.176;4.452;2022-07-01T00:46:52;17.60;;;8.80;;
24685;SDS011;12804;51.176;4.452;2022-07-01T00:49:18;14.00;;;8.80;;
24685;SDS011;12804;51.176;4.452;2022-07-01T00:51:46;19.90;;;9.57;;
24685;SDS011;12804;51.176;4.452;2022-07-01T00:54:13;13.80;;;8.95;;
24685;SDS011;12804;51.176;4.452;2022-07-01T00:56:39;16.20;;;9.05;;
24685;SDS011;12804;51.176;4.452;2022-07-01T00:59:05;17.77;;;9.98;;
24685;SDS011;12804;51.176;4.452;2022-07-01T01:01:31;13.93;;;9.18;;
24685;SDS011;12804;51.176;4.452;2022-07-01T01:03:57;16.92;;;9.13;;
24685;SDS011;12804;51.176;4.452;2022-07-01T01:06:23;15.80;;;9.02;;
24685;SDS011;12804;51.176;4.452;2022-07-01T01:08:49;15.25;;;9.80;;
24685;SDS011;12804;51.176;4.452;2022-07-01T01:11:16;15.82;;;9.35;;
24685;SDS011;12804;51.176;4.452;2022-07-01T01:13:42;13.90;;;8.98;;
24685;SDS011;12804;51.176;4.452;2022-07-01T01:16:15;14.93;;;9.02;;
24685;SDS011;12804;51.176;4.452;2022-07-01T01:18:51;16.40;;;9.27;;
24685;SDS011;12804;51.176;4.452;2022-07-01T01:21:17;14.77;;;9.40;;
24685;SDS011;12804;51.176;4.452;2022-07-01T01:23:43;14.73;;;9.60;;
24685;SDS011;12804;51.176;4.452;2022-07-01T01:26:19;17.98;;;10.60;;
24685;SDS011;12804;51.176;4.452;2022-07-01T01:28:47;14.15;;;9.75;;
24685;SDS011;12804;51.176;4.452;2022-07-01T01:31:14;17.55;;;9.65;;
24685;SDS011;12804;51.176;4.452;2022-07-01T01:33:40;18.30;;;10.18;;
24685;SDS011;12804;51.176;4.452;2022-07-01T01:36:06;13.57;;;9.35;;
24685;SDS011;12804;51.176;4.452;2022-07-01T01:38:33;15.23;;;9.93;;
24685;SDS011;12804;51.176;4.452;2022-07-01T01:41:00;19.45;;;10.80;;
24685;SDS011;12804;51.176;4.452;2022-07-01T01:43:26;17.23;;;10.55;;
24685;SDS011;12804;51.176;4.452;2022-07-01T01:45:53;16.48;;;10.30;;
24685;SDS011;12804;51.176;4.452;2022-07-01T01:48:19;16.63;;;10.05;;
24685;SDS011;12804;51.176;4.452;2022-07-01T01:50:44;19.40;;;10.48;;
24685;SDS011;12804;51.176;4.452;2022-07-01T01:53:10;17.30;;;10.90;;
24685;SDS011;12804;51.176;4.452;2022-07-01T01:55:36;22.10;;;10.75;;
24685;SDS011;12804;51.176;4.452;2022-07-01T01:58:02;15.98;;;10.80;;
24685;SDS011;12804;51.176;4.452;2022-07-01T02:00:27;19.95;;;11.20;;
24685;SDS011;12804;51.176;4.452;2022-07-01T02:02:53;18.20;;;10.82;;
24685;SDS011;12804;51.176;4.452;2022-07-01T02:05:19;15.43;;;10.45;;
24685;SDS011;12804;51.176;4.452;2022-07-01T02:07:45;16.60;;;11.25;;
24685;SDS011;12804;51.176;4.452;2022-07-01T02:10:11;15.65;;;10.38;;
24685;SDS011;12804;51.176;4.452;2022-07-01T02:12:37;15.75;;;10.43;;
24685;SDS011;12804;51.176;4.452;2022-07-01T02:15:02;16.73;;;10.65;;
24685;SDS011;12804;51.176;4.452;2022-07-01T02:17:29;16.90;;;10.40;;
24685;SDS011;12804;51.176;4.452;2022-07-01T02:19:54;16.13;;;10.60;;
24685;SDS011;12804;51.176;4.452;2022-07-01T02:22:20;16.10;;;11.13;;
24685;SDS011;12804;51.176;4.452;2022-07-01T02:24:46;15.63;;;9.75;;
24685;SDS011;12804;51.176;4.452;2022-07-01T02:27:12;18.63;;;10.93;;
24685;SDS011;12804;51.176;4.452;2022-07-01T02:29:38;14.98;;;10.52;;
24685;SDS011;12804;51.176;4.452;2022-07-01T02:32:04;15.82;;;10.98;;
24685;SDS011;12804;51.176;4.452;2022-07-01T02:34:30;18.63;;;11.32;;
24685;SDS011;12804;51.176;4.452;2022-07-01T02:36:55;20.10;;;11.63;;
24685;SDS011;12804;51.176;4.452;2022-07-01T02:39:21;19.13;;;11.65;;
24685;SDS011;12804;51.176;4.452;2022-07-01T02:41:48;17.88;;;11.00;;
24685;SDS011;12804;51.176;4.452;2022-07-01T02:44:35;17.38;;;11.25;;
24685;SDS011;12804;51.176;4.452;2022-07-01T02:47:01;16.65;;;11.10;;
24685;SDS011;12804;51.176;4.452;2022-07-01T02:49:27;20.08;;;10.23;;
24685;SDS011;12804;51.176;4.452;2022-07-01T02:51:52;14.77;;;11.00;;
24685;SDS011;12804;51.176;4.452;2022-07-01T02:54:18;17.05;;;11.13;;
24685;SDS011;12804;51.176;4.452;2022-07-01T02:56:44;17.25;;;11.43;;
24685;SDS011;12804;51.176;4.452;2022-07-01T02:59:10;19.15;;;12.35;;
24685;SDS011;12804;51.176;4.452;2022-07-01T03:01:36;19.25;;;12.02;;
24685;SDS011;12804;51.176;4.452;2022-07-01T03:04:02;17.30;;;11.43;;
24685;SDS011;12804;51.176;4.452;2022-07-01T03:06:28;19.95;;;11.80;;
24685;SDS011;12804;51.176;4.452;2022-07-01T03:08:53;26.27;;;13.18;;
24685;SDS011;12804;51.176;4.452;2022-07-01T03:11:21;19.40;;;13.43;;
24685;SDS011;12804;51.176;4.452;2022-07-01T03:13:47;16.25;;;11.77;;
24685;SDS011;12804;51.176;4.452;2022-07-01T03:16:12;21.52;;;12.30;;
24685;SDS011;12804;51.176;4.452;2022-07-01T03:18:38;19.55;;;12.95;;
24685;SDS011;12804;51.176;4.452;2022-07-01T03:21:04;18.33;;;12.63;;
24685;SDS011;12804;51.176;4.452;2022-07-01T03:23:30;21.40;;;12.68;;
24685;SDS011;12804;51.176;4.452;2022-07-01T03:25:56;18.77;;;13.30;;
24685;SDS011;12804;51.176;4.452;2022-07-01T03:28:21;18.10;;;12.95;;
24685;SDS011;12804;51.176;4.452;2022-07-01T03:30:48;21.58;;;13.55;;
24685;SDS011;12804;51.176;4.452;2022-07-01T03:33:14;20.63;;;13.05;;
24685;SDS011;12804;51.176;4.452;2022-07-01T03:35:40;19.52;;;12.98;;
24685;SDS011;12804;51.176;4.452;2022-07-01T03:38:10;19.85;;;13.57;;
24685;SDS011;12804;51.176;4.452;2022-07-01T03:40:37;22.05;;;13.88;;
24685;SDS011;12804;51.176;4.452;2022-07-01T03:43:03;21.70;;;13.07;;
24685;SDS011;12804;51.176;4.452;2022-07-01T03:45:30;21.27;;;13.35;;
24685;SDS011;12804;51.176;4.452;2022-07-01T03:47:57;15.73;;;12.93;;
24685;SDS011;12804;51.176;4.452;2022-07-01T03:50:23;23.38;;;13.00;;
24685;SDS011;12804;51.176;4.452;2022-07-01T03:52:50;17.08;;;13.18;;
24685;SDS011;12804;51.176;4.452;2022-07-01T03:55:35;20.23;;;13.35;;
24685;SDS011;12804;51.176;4.452;2022-07-01T03:58:02;20.42;;;12.55;;
24685;SDS011;12804;51.176;4.452;2022-07-01T04:00:27;21.48;;;13.23;;
24685;SDS011;12804;51.176;4.452;2022-07-01T04:02:53;17.73;;;12.75;;
24685;SDS011;12804;51.176;4.452;2022-07-01T04:05:19;17.92;;;12.57;;
24685;SDS011;12804;51.176;4.452;2022-07-01T04:07:45;20.23;;;12.43;;
24685;SDS011;12804;51.176;4.452;2022-07-01T04:10:11;18.30;;;12.30;;
24685;SDS011;12804;51.176;4.452;2022-07-01T04:12:38;17.85;;;12.90;;
24685;SDS011;12804;51.176;4.452;2022-07-01T04:15:04;17.15;;;12.73;;
24685;SDS011;12804;51.176;4.452;2022-07-01T04:17:30;14.73;;;12.05;;
24685;SDS011;12804;51.176;4.452;2022-07-01T04:19:56;17.58;;;12.07;;
24685;SDS011;12804;51.176;4.452;2022-07-01T04:22:22;22.65;;;12.02;;
24685;SDS011;12804;51.176;4.452;2022-07-01T04:25:03;19.35;;;12.40;;
24685;SDS011;12804;51.176;4.452;2022-07-01T04:27:33;21.05;;;12.10;;
24685;SDS011;12804;51.176;4.452;2022-07-01T04:29:59;16.23;;;11.80;;
24685;SDS011;12804;51.176;4.452;2022-07-01T04:32:27;18.70;;;11.65;;
24685;SDS011;12804;51.176;4.452;2022-07-01T04:34:53;18.65;;;11.80;;
24685;SDS011;12804;51.176;4.452;2022-07-01T04:37:19;19.40;;;12.23;;
24685;SDS011;12804;51.176;4.452;2022-07-01T04:39:45;17.67;;;11.50;;
24685;SDS011;12804;51.176;4.452;2022-07-01T04:42:11;14.13;;;10.70;;
24685;SDS011;12804;51.176;4.452;2022-07-01T04:44:39;16.63;;;11.73;;
24685;SDS011;12804;51.176;4.452;2022-07-01T04:47:05;18.20;;;11.75;;
24685;SDS011;12804;51.176;4.452;2022-07-01T04:49:31;18.23;;;11.55;;
24685;SDS011;12804;51.176;4.452;2022-07-01T04:51:57;14.85;;;11.63;;
24685;SDS011;12804;51.176;4.452;2022-07-01T04:54:23;19.85;;;11.02;;
24685;SDS011;12804;51.176;4.452;2022-07-01T04:56:51;15.70;;;11.10;;
24685;SDS011;12804;51.176;4.452;2022-07-01T04:59:17;15.98;;;11.60;;
24685;SDS011;12804;51.176;4.452;2022-07-01T05:01:44;19.80;;;12.07;;
24685;SDS011;12804;51.176;4.452;2022-07-01T05:04:14;17.10;;;11.85;;
24685;SDS011;12804;51.176;4.452;2022-07-01T05:06:41;18.58;;;11.55;;
24685;SDS011;12804;51.176;4.452;2022-07-01T05:09:07;19.65;;;12.43;;
24685;SDS011;12804;51.176;4.452;2022-07-01T05:11:33;17.15;;;12.10;;
24685;SDS011;12804;51.176;4.452;2022-07-01T05:13:59;20.65;;;12.30;;
24685;SDS011;12804;51.176;4.452;2022-07-01T05:16:25;17.65;;;12.10;;
24685;SDS011;12804;51.176;4.452;2022-07-01T05:18:51;21.15;;;12.30;;
24685;SDS011;12804;51.176;4.452;2022-07-01T05:21:35;18.30;;;12.15;;
24685;SDS011;12804;51.176;4.452;2022-07-01T05:24:20;19.83;;;11.73;;
24685;SDS011;12804;51.176;4.452;2022-07-01T05:26:46;17.27;;;11.85;;
24685;SDS011;12804;51.176;4.452;2022-07-01T05:29:11;17.23;;;12.07;;
24685;SDS011;12804;51.176;4.452;2022-07-01T05:31:37;17.48;;;11.68;;
24685;SDS011;12804;51.176;4.452;2022-07-01T05:34:03;19.75;;;11.38;;
24685;SDS011;12804;51.176;4.452;2022-07-01T05:36:29;17.15;;;10.68;;
24685;SDS011;12804;51.176;4.452;2022-07-01T05:38:55;15.75;;;10.52;;
24685;SDS011;12804;51.176;4.452;2022-07-01T05:41:21;14.70;;;9.82;;
24685;SDS011;12804;51.176;4.452;2022-07-01T05:43:47;11.82;;;9.45;;
24685;SDS011;12804;51.176;4.452;2022-07-01T05:46:13;17.85;;;8.80;;
24685;SDS011;12804;51.176;4.452;2022-07-01T05:48:38;14.82;;;9.07;;
24685;SDS011;12804;51.176;4.452;2022-07-01T05:51:04;11.00;;;8.02;;
24685;SDS011;12804;51.176;4.452;2022-07-01T05:53:30;17.80;;;7.90;;
24685;SDS011;12804;51.176;4.452;2022-07-01T05:55:56;9.73;;;7.25;;
24685;SDS011;12804;51.176;4.452;2022-07-01T05:58:22;12.07;;;7.22;;
24685;SDS011;12804;51.176;4.452;2022-07-01T06:00:47;14.32;;;7.88;;
24685;SDS011;12804;51.176;4.452;2022-07-01T06:03:14;14.40;;;7.40;;
24685;SDS011;12804;51.176;4.452;2022-07-01T06:05:41;11.05;;;7.07;;
24685;SDS011;12804;51.176;4.452;2022-07-01T06:08:07;8.57;;;6.93;;
24685;SDS011;12804;51.176;4.452;2022-07-01T06:10:33;11.75;;;6.70;;
24685;SDS011;12804;51.176;4.452;2022-07-01T06:13:00;10.90;;;6.55;;
24685;SDS011;12804;51.176;4.452;2022-07-01T06:15:26;10.98;;;5.80;;
24685;SDS011;12804;51.176;4.452;2022-07-01T06:17:52;11.13;;;6.57;;
24685;SDS011;12804;51.176;4.452;2022-07-01T06:20:19;10.52;;;6.03;;
24685;SDS011;12804;51.176;4.452;2022-07-01T06:22:45;10.27;;;5.47;;
24685;SDS011;12804;51.176;4.452;2022-07-01T06:25:11;9.10;;;5.47;;
24685;SDS011;12804;51.176;4.452;2022-07-01T06:27:38;11.05;;;5.18;;
24685;SDS011;12804;51.176;4.452;2022-07-01T06:30:05;10.60;;;4.55;;
24685;SDS011;12804;51.176;4.452;2022-07-01T06:32:31;10.95;;;4.75;;
24685;SDS011;12804;51.176;4.452;2022-07-01T06:34:57;7.93;;;4.55;;
24685;SDS011;12804;51.176;4.452;2022-07-01T06:37:23;7.07;;;4.45;;
24685;SDS011;12804;51.176;4.452;2022-07-01T06:39:49;9.95;;;4.50;;
24685;SDS011;12804;51.176;4.452;2022-07-01T06:42:14;10.63;;;4.70;;
24685;SDS011;12804;51.176;4.452;2022-07-01T06:44:42;10.88;;;4.45;;
24685;SDS011;12804;51.176;4.452;2022-07-01T06:47:09;7.80;;;4.05;;
24685;SDS011;12804;51.176;4.452;2022-07-01T06:49:35;6.55;;;3.83;;
24685;SDS011;12804;51.176;4.452;2022-07-01T06:52:01;12.88;;;4.10;;
24685;SDS011;12804;51.176;4.452;2022-07-01T06:54:27;6.88;;;3.92;;
24685;SDS011;12804;51.176;4.452;2022-07-01T06:56:53;9.65;;;4.10;;
24685;SDS011;12804;51.176;4.452;2022-07-01T06:59:20;7.88;;;4.03;;
24685;SDS011;12804;51.176;4.452;2022-07-01T07:01:46;6.68;;;3.40;;
24685;SDS011;12804;51.176;4.452;2022-07-01T07:04:11;6.95;;;3.42;;
24685;SDS011;12804;51.176;4.452;2022-07-01T07:06:37;6.45;;;3.33;;
24685;SDS011;12804;51.176;4.452;2022-07-01T07:09:03;6.10;;;3.28;;
24685;SDS011;12804;51.176;4.452;2022-07-01T07:11:29;7.18;;;3.38;;
24685;SDS011;12804;51.176;4.452;2022-07-01T07:13:55;10.57;;;2.97;;
24685;SDS011;12804;51.176;4.452;2022-07-01T07:16:21;8.32;;;2.55;;
24685;SDS011;12804;51.176;4.452;2022-07-01T07:18:47;3.70;;;1.88;;
24685;SDS011;12804;51.176;4.452;2022-07-01T07:21:14;5.60;;;2.50;;
24685;SDS011;12804;51.176;4.452;2022-07-01T07:23:40;9.75;;;2.65;;
24685;SDS011;12804;51.176;4.452;2022-07-01T07:26:06;8.20;;;2.03;;
24685;SDS011;12804;51.176;4.452;2022-07-01T07:28:32;6.90;;;2.10;;
24685;SDS011;12804;51.176;4.452;2022-07-01T07:30:58;7.88;;;1.95;;
24685;SDS011;12804;51.176;4.452;2022-07-01T07:33:24;3.45;;;1.50;;
24685;SDS011;12804;51.176;4.452;2022-07-01T07:35:50;5.13;;;2.05;;
24685;SDS011;12804;51.176;4.452;2022-07-01T07:38:15;5.10;;;1.33;;
24685;SDS011;12804;51.176;4.452;2022-07-01T07:40:41;5.38;;;1.35;;
24685;SDS011;12804;51.176;4.452;2022-07-01T07:43:07;4.95;;;1.40;;
24685;SDS011;12804;51.176;4.452;2022-07-01T07:45:33;5.10;;;1.45;;
24685;SDS011;12804;51.176;4.452;2022-07-01T07:48:00;4.80;;;1.40;;
24685;SDS011;12804;51.176;4.452;2022-07-01T07:50:26;4.18;;;1.33;;
24685;SDS011;12804;51.176;4.452;2022-07-01T07:52:53;5.38;;;1.33;;
24685;SDS011;12804;51.176;4.452;2022-07-01T07:55:19;6.03;;;1.30;;
24685;SDS011;12804;51.176;4.452;2022-07-01T07:57:45;5.38;;;1.38;;
24685;SDS011;12804;51.176;4.452;2022-07-01T08:00:11;3.15;;;1.10;;
24685;SDS011;12804;51.176;4.452;2022-07-01T08:02:38;4.35;;;1.20;;
24685;SDS011;12804;51.176;4.452;2022-07-01T08:05:05;4.70;;;1.23;;
24685;SDS011;12804;51.176;4.452;2022-07-01T08:07:35;3.25;;;1.10;;
24685;SDS011;12804;51.176;4.452;2022-07-01T08:10:06;6.03;;;1.00;;
24685;SDS011;12804;51.176;4.452;2022-07-01T08:12:33;7.82;;;1.20;;
24685;SDS011;12804;51.176;4.452;2022-07-01T08:14:59;3.55;;;1.20;;
24685;SDS011;12804;51.176;4.452;2022-07-01T08:17:25;4.47;;;1.02;;
24685;SDS011;12804;51.176;4.452;2022-07-01T08:19:51;4.63;;;1.10;;
24685;SDS011;12804;51.176;4.452;2022-07-01T08:22:17;9.63;;;1.70;;
24685;SDS011;12804;51.176;4.452;2022-07-01T08:24:44;4.30;;;1.10;;
24685;SDS011;12804;51.176;4.452;2022-07-01T08:27:10;4.07;;;1.15;;
24685;SDS011;12804;51.176;4.452;2022-07-01T08:29:38;3.55;;;1.20;;
24685;SDS011;12804;51.176;4.452;2022-07-01T08:32:04;5.88;;;1.20;;
24685;SDS011;12804;51.176;4.452;2022-07-01T08:34:31;4.00;;;1.08;;
24685;SDS011;12804;51.176;4.452;2022-07-01T08:36:57;10.05;;;1.23;;
24685;SDS011;12804;51.176;4.452;2022-07-01T08:39:22;5.53;;;1.15;;
24685;SDS011;12804;51.176;4.452;2022-07-01T08:41:48;5.05;;;1.10;;
24685;SDS011;12804;51.176;4.452;2022-07-01T08:44:14;6.40;;;1.05;;
24685;SDS011;12804;51.176;4.452;2022-07-01T08:46:40;3.17;;;1.10;;
24685;SDS011;12804;51.176;4.452;2022-07-01T08:49:06;2.60;;;1.00;;
24685;SDS011;12804;51.176;4.452;2022-07-01T08:51:32;2.75;;;0.90;;
24685;SDS011;12804;51.176;4.452;2022-07-01T08:53:59;8.52;;;1.40;;
24685;SDS011;12804;51.176;4.452;2022-07-01T08:56:25;2.42;;;0.80;;
24685;SDS011;12804;51.176;4.452;2022-07-01T08:59:06;2.67;;;0.80;;
24685;SDS011;12804;51.176;4.452;2022-07-01T09:01:32;2.88;;;0.70;;
24685;SDS011;12804;51.176;4.452;2022-07-01T09:04:15;4.70;;;1.05;;
24685;SDS011;12804;51.176;4.452;2022-07-01T09:06:43;7.10;;;1.25;;
24685;SDS011;12804;51.176;4.452;2022-07-01T09:09:10;5.18;;;0.88;;
24685;SDS011;12804;51.176;4.452;2022-07-01T09:11:43;2.90;;;0.90;;
24685;SDS011;12804;51.176;4.452;2022-07-01T09:14:14;4.90;;;1.00;;
24685;SDS011;12804;51.176;4.452;2022-07-01T09:16:41;3.38;;;0.85;;
24685;SDS011;12804;51.176;4.452;2022-07-01T09:19:09;4.32;;;1.00;;
24685;SDS011;12804;51.176;4.452;2022-07-01T09:21:36;5.03;;;1.10;;
24685;SDS011;12804;51.176;4.452;2022-07-01T09:24:03;5.68;;;1.10;;
24685;SDS011;12804;51.176;4.452;2022-07-01T09:26:51;6.32;;;1.10;;
24685;SDS011;12804;51.176;4.452;2022-07-01T09:29:24;7.55;;;1.30;;
24685;SDS011;12804;51.176;4.452;2022-07-01T09:31:56;3.50;;;0.82;;
24685;SDS011;12804;51.176;4.452;2022-07-01T09:34:23;9.02;;;1.50;;
24685;SDS011;12804;51.176;4.452;2022-07-01T09:36:53;3.13;;;0.85;;
24685;SDS011;12804;51.176;4.452;2022-07-01T09:39:20;5.50;;;1.00;;
24685;SDS011;12804;51.176;4.452;2022-07-01T09:41:46;4.15;;;1.00;;
24685;SDS011;12804;51.176;4.452;2022-07-01T09:44:12;2.88;;;0.90;;
24685;SDS011;12804;51.176;4.452;2022-07-01T09:46:39;3.92;;;0.90;;
24685;SDS011;12804;51.176;4.452;2022-07-01T09:49:20;2.80;;;1.02;;
24685;SDS011;12804;51.176;4.452;2022-07-01T09:51:46;2.50;;;0.88;;
24685;SDS011;12804;51.176;4.452;2022-07-01T09:54:14;5.97;;;1.10;;
24685;SDS011;12804;51.176;4.452;2022-07-01T09:56:40;4.18;;;0.95;;
24685;SDS011;12804;51.176;4.452;2022-07-01T09:59:06;6.80;;;1.10;;
24685;SDS011;12804;51.176;4.452;2022-07-01T10:01:32;3.35;;;0.90;;
24685;SDS011;12804;51.176;4.452;2022-07-01T10:03:59;2.92;;;0.90;;
24685;SDS011;12804;51.176;4.452;2022-07-01T10:14:08;4.55;;;1.00;;
24685;SDS011;12804;51.176;4.452;2022-07-01T10:16:36;2.42;;;0.80;;
24685;SDS011;12804;51.176;4.452;2022-07-01T10:21:49;3.75;;;1.08;;
24685;SDS011;12804;51.176;4.452;2022-07-01T10:24:22;4.82;;;1.10;;
24685;SDS011;12804;51.176;4.452;2022-07-01T10:26:48;3.28;;;1.00;;
24685;SDS011;12804;51.176;4.452;2022-07-01T10:29:30;2.42;;;0.75;;
24685;SDS011;12804;51.176;4.452;2022-07-01T10:32:25;3.88;;;0.98;;
24685;SDS011;12804;51.176;4.452;2022-07-01T10:35:13;2.60;;;0.70;;
24685;SDS011;12804;51.176;4.452;2022-07-01T10:38:01;3.88;;;0.80;;
24685;SDS011;12804;51.176;4.452;2022-07-01T10:40:41;5.38;;;0.80;;
24685;SDS011;12804;51.176;4.452;2022-07-01T10:43:14;3.45;;;0.60;;
24685;SDS011;12804;51.176;4.452;2022-07-01T10:45:44;3.17;;;0.65;;
24685;SDS011;12804;51.176;4.452;2022-07-01T10:48:17;1.60;;;0.60;;
24685;SDS011;12804;51.176;4.452;2022-07-01T10:50:48;2.38;;;0.75;;
24685;SDS011;12804;51.176;4.452;2022-07-01T10:53:14;6.03;;;0.80;;
24685;SDS011;12804;51.176;4.452;2022-07-01T10:55:42;3.53;;;0.60;;
24685;SDS011;12804;51.176;4.452;2022-07-01T10:58:11;1.23;;;0.57;;
24685;SDS011;12804;51.176;4.452;2022-07-01T11:00:40;2.78;;;0.70;;
24685;SDS011;12804;51.176;4.452;2022-07-01T11:03:13;4.45;;;0.90;;
24685;SDS011;12804;51.176;4.452;2022-07-01T11:05:44;1.80;;;0.80;;
24685;SDS011;12804;51.176;4.452;2022-07-01T11:08:11;2.97;;;0.90;;
24685;SDS011;12804;51.176;4.452;2022-07-01T11:10:38;1.90;;;0.70;;
24685;SDS011;12804;51.176;4.452;2022-07-01T11:13:05;3.70;;;0.70;;
24685;SDS011;12804;51.176;4.452;2022-07-01T11:15:31;5.43;;;0.90;;
24685;SDS011;12804;51.176;4.452;2022-07-01T11:17:57;2.03;;;0.70;;
24685;SDS011;12804;51.176;4.452;2022-07-01T11:20:25;2.00;;;0.85;;
24685;SDS011;12804;51.176;4.452;2022-07-01T11:22:54;4.22;;;0.90;;
24685;SDS011;12804;51.176;4.452;2022-07-01T11:25:20;3.20;;;0.95;;
24685;SDS011;12804;51.176;4.452;2022-07-01T11:27:48;3.55;;;0.70;;
24685;SDS011;12804;51.176;4.452;2022-07-01T11:30:16;2.28;;;0.60;;
24685;SDS011;12804;51.176;4.452;2022-07-01T11:32:44;3.25;;;0.60;;
24685;SDS011;12804;51.176;4.452;2022-07-01T11:35:20;3.33;;;0.70;;
24685;SDS011;12804;51.176;4.452;2022-07-01T11:38:14;1.88;;;0.50;;
24685;SDS011;12804;51.176;4.452;2022-07-01T11:41:03;2.72;;;0.50;;
24685;SDS011;12804;51.176;4.452;2022-07-01T11:43:32;2.78;;;0.50;;
24685;SDS011;12804;51.176;4.452;2022-07-01T11:46:03;2.30;;;0.70;;
24685;SDS011;12804;51.176;4.452;2022-07-01T11:48:35;1.88;;;0.70;;
24685;SDS011;12804;51.176;4.452;2022-07-01T11:53:33;2.17;;;0.60;;
24685;SDS011;12804;51.176;4.452;2022-07-01T11:55:59;1.70;;;0.60;;
24685;SDS011;12804;51.176;4.452;2022-07-01T11:58:39;1.73;;;0.50;;
24685;SDS011;12804;51.176;4.452;2022-07-01T12:01:09;2.63;;;0.65;;
24685;SDS011;12804;51.176;4.452;2022-07-01T12:03:35;2.03;;;0.40;;
24685;SDS011;12804;51.176;4.452;2022-07-01T12:06:03;2.15;;;0.50;;
24685;SDS011;12804;51.176;4.452;2022-07-01T12:08:29;2.42;;;0.50;;
24685;SDS011;12804;51.176;4.452;2022-07-01T12:10:55;2.67;;;0.60;;
24685;SDS011;12804;51.176;4.452;2022-07-01T12:13:25;2.17;;;0.38;;
24685;SDS011;12804;51.176;4.452;2022-07-01T12:15:51;4.80;;;0.40;;
24685;SDS011;12804;51.176;4.452;2022-07-01T12:18:17;5.78;;;0.50;;
24685;SDS011;12804;51.176;4.452;2022-07-01T12:20:48;2.80;;;0.75;;
24685;SDS011;12804;51.176;4.452;2022-07-01T12:23:14;3.05;;;0.52;;
24685;SDS011;12804;51.176;4.452;2022-07-01T12:25:45;2.97;;;0.52;;
24685;SDS011;12804;51.176;4.452;2022-07-01T12:28:25;1.55;;;0.57;;
24685;SDS011;12804;51.176;4.452;2022-07-01T12:30:59;3.67;;;0.50;;
24685;SDS011;12804;51.176;4.452;2022-07-01T12:33:26;3.13;;;0.38;;
24685;SDS011;12804;51.176;4.452;2022-07-01T12:35:52;1.15;;;0.47;;
24685;SDS011;12804;51.176;4.452;2022-07-01T12:38:20;3.13;;;0.60;;
24685;SDS011;12804;51.176;4.452;2022-07-01T12:40:45;1.67;;;0.40;;
24685;SDS011;12804;51.176;4.452;2022-07-01T12:43:30;3.22;;;0.60;;
24685;SDS011;12804;51.176;4.452;2022-07-01T12:45:59;2.33;;;0.43;;
24685;SDS011;12804;51.176;4.452;2022-07-01T12:48:26;3.20;;;0.50;;
24685;SDS011;12804;51.176;4.452;2022-07-01T12:50:56;3.10;;;0.50;;
24685;SDS011;12804;51.176;4.452;2022-07-01T12:53:23;1.92;;;0.43;;
24685;SDS011;12804;51.176;4.452;2022-07-01T12:55:54;3.70;;;0.50;;
24685;SDS011;12804;51.176;4.452;2022-07-01T12:58:22;4.78;;;0.40;;
24685;SDS011;12804;51.176;4.452;2022-07-01T13:00:59;2.80;;;0.50;;
24685;SDS011;12804;51.176;4.452;2022-07-01T13:03:25;2.22;;;0.60;;
24685;SDS011;12804;51.176;4.452;2022-07-01T13:05:53;2.17;;;0.47;;
24685;SDS011;12804;51.176;4.452;2022-07-01T13:08:22;2.08;;;0.50;;
24685;SDS011;12804;51.176;4.452;2022-07-01T13:10:48;2.10;;;0.52;;
24685;SDS011;12804;51.176;4.452;2022-07-01T13:13:14;2.42;;;0.70;;
24685;SDS011;12804;51.176;4.452;2022-07-01T13:15:42;2.08;;;0.80;;
24685;SDS011;12804;51.176;4.452;2022-07-01T13:18:09;1.90;;;0.68;;
24685;SDS011;12804;51.176;4.452;2022-07-01T13:20:39;4.90;;;0.90;;
24685;SDS011;12804;51.176;4.452;2022-07-01T13:23:05;4.97;;;0.90;;
24685;SDS011;12804;51.176;4.452;2022-07-01T13:25:31;4.63;;;0.90;;
24685;SDS011;12804;51.176;4.452;2022-07-01T13:27:57;5.50;;;1.15;;
24685;SDS011;12804;51.176;4.452;2022-07-01T13:30:23;5.05;;;0.90;;
24685;SDS011;12804;51.176;4.452;2022-07-01T13:32:50;3.22;;;0.80;;
24685;SDS011;12804;51.176;4.452;2022-07-01T13:35:19;2.60;;;0.90;;
24685;SDS011;12804;51.176;4.452;2022-07-01T13:37:46;1.85;;;0.73;;
24685;SDS011;12804;51.176;4.452;2022-07-01T13:40:12;3.78;;;0.98;;
24685;SDS011;12804;51.176;4.452;2022-07-01T13:42:39;2.85;;;1.08;;
24685;SDS011;12804;51.176;4.452;2022-07-01T13:45:05;4.80;;;1.00;;
24685;SDS011;12804;51.176;4.452;2022-07-01T13:47:31;2.35;;;1.02;;
24685;SDS011;12804;51.176;4.452;2022-07-01T13:49:57;4.53;;;1.23;;
24685;SDS011;12804;51.176;4.452;2022-07-01T13:52:23;3.83;;;1.10;;
24685;SDS011;12804;51.176;4.452;2022-07-01T13:54:49;5.28;;;1.27;;
24685;SDS011;12804;51.176;4.452;2022-07-01T13:57:15;4.00;;;1.00;;
24685;SDS011;12804;51.176;4.452;2022-07-01T13:59:41;3.25;;;0.90;;
24685;SDS011;12804;51.176;4.452;2022-07-01T14:02:07;5.65;;;0.95;;
24685;SDS011;12804;51.176;4.452;2022-07-01T14:04:34;2.72;;;1.00;;
24685;SDS011;12804;51.176;4.452;2022-07-01T14:07:00;3.47;;;0.88;;
24685;SDS011;12804;51.176;4.452;2022-07-01T14:09:25;2.90;;;0.80;;
24685;SDS011;12804;51.176;4.452;2022-07-01T14:11:51;4.40;;;1.10;;
24685;SDS011;12804;51.176;4.452;2022-07-01T14:14:17;3.97;;;0.80;;
24685;SDS011;12804;51.176;4.452;2022-07-01T14:16:43;2.25;;;0.95;;
24685;SDS011;12804;51.176;4.452;2022-07-01T14:19:09;5.25;;;1.10;;
24685;SDS011;12804;51.176;4.452;2022-07-01T14:21:34;5.43;;;1.35;;
24685;SDS011;12804;51.176;4.452;2022-07-01T14:24:02;5.90;;;1.33;;
24685;SDS011;12804;51.176;4.452;2022-07-01T14:26:29;4.22;;;1.00;;
24685;SDS011;12804;51.176;4.452;2022-07-01T14:28:55;2.22;;;0.80;;
24685;SDS011;12804;51.176;4.452;2022-07-01T14:31:21;2.53;;;0.90;;
24685;SDS011;12804;51.176;4.452;2022-07-01T14:33:46;2.65;;;0.77;;
24685;SDS011;12804;51.176;4.452;2022-07-01T14:36:13;3.28;;;1.00;;
24685;SDS011;12804;51.176;4.452;2022-07-01T14:38:39;4.32;;;0.90;;
24685;SDS011;12804;51.176;4.452;2022-07-01T14:41:05;2.97;;;1.00;;
24685;SDS011;12804;51.176;4.452;2022-07-01T14:43:31;3.70;;;0.80;;
24685;SDS011;12804;51.176;4.452;2022-07-01T14:45:57;2.80;;;0.75;;
24685;SDS011;12804;51.176;4.452;2022-07-01T14:48:23;2.55;;;0.90;;
24685;SDS011;12804;51.176;4.452;2022-07-01T14:50:49;2.05;;;0.40;;
24685;SDS011;12804;51.176;4.452;2022-07-01T14:53:15;2.00;;;0.60;;